»·PEaware :: N733TR KUIL-KRNT

N733TR :: KUIL-KRNT

FLIGHT INFORMATION

Flight Status: Arrived
Operator: Privately registered:
United States
More flights under this callsign
Pilot: Jonathan B. (787)
Aircraft: Unknown
(LEG2)
More flights by this aircraft type
Origin: KUIL Quillayute
United States
Destination: KRNT Renton Mun
United States
More flights between these airports :: More routes between these airports
Route: TOU V4 JAWBN KRNT
File this flight plan on PilotEdge
Remarks:
Altitude:
(Current/Filed)
3,500ft
Speed:
(Current/Filed)
220kts
Departed: 13-Sep-20 02:16 PM
Arrived: 13-Sep-20 03:01 PM
Distance/Time
Traveled:
98nm/0:45
Distance/Time
To Go:
Arrived

Flight Plot

Page will automatically refresh every two minutes.

Flight plan parsing failed; only flown route is shown


Map Options




Map Legend


Flown Route
Filed Route
Departure Airport
Arrival Airport
Navaid (VOR, NDB)
Fix

Horizontal Profiles

Position Reports

Time Latitude Longitude Heading Altitude Ground
Speed
13-Sep-20 14:03 47.934765 -124.561417 314 195ft 0kts
13-Sep-20 14:04 47.934765 -124.561417 314 195ft 0kts
13-Sep-20 14:05 47.934765 -124.561417 314 195ft 0kts
13-Sep-20 14:06 47.934765 -124.561417 314 195ft 0kts
13-Sep-20 14:07 47.934765 -124.561417 314 195ft 0kts
13-Sep-20 14:08 47.934765 -124.561417 314 195ft 0kts
13-Sep-20 14:09 47.934765 -124.561417 314 195ft 0kts
13-Sep-20 14:10 47.934765 -124.561417 314 195ft 0kts
13-Sep-20 14:11 47.934765 -124.561417 314 195ft 0kts
13-Sep-20 14:12 47.934765 -124.561417 314 195ft 0kts
13-Sep-20 14:13 47.934765 -124.561417 314 195ft 0kts
13-Sep-20 14:14 47.936839 -124.561887 242 195ft 23kts
13-Sep-20 14:15 47.944497 -124.595026 6 1634ft 131kts
13-Sep-20 14:16 47.960767 -124.585435 18 2547ft 146kts
13-Sep-20 14:17 48.006126 -124.575092 346 3499ft 195kts
13-Sep-20 14:18 48.061298 -124.584603 345 3496ft 201kts
13-Sep-20 14:19 48.126678 -124.596119 348 3490ft 267kts
13-Sep-20 14:20 48.201286 -124.609404 347 3489ft 272kts
13-Sep-20 14:21 48.276931 -124.617654 18 3483ft 281kts
13-Sep-20 14:22 48.286115 -124.526465 114 3487ft 250kts
13-Sep-20 14:23 48.270816 -124.423532 109 3490ft 253kts
13-Sep-20 14:24 48.255931 -124.320343 110 3488ft 253kts
13-Sep-20 14:25 48.240906 -124.216891 110 3487ft 252kts
13-Sep-20 14:26 48.225961 -124.114671 110 3487ft 246kts
13-Sep-20 14:27 48.211401 -124.015761 111 3488ft 241kts
13-Sep-20 14:28 48.196872 -123.917778 111 3488ft 240kts
13-Sep-20 14:29 48.182436 -123.820698 111 4390ft 235kts
13-Sep-20 14:30 48.168186 -123.725848 111 5478ft 242kts
13-Sep-20 14:31 48.153110 -123.625988 110 5489ft 246kts
13-Sep-20 14:32 48.137882 -123.525691 110 5489ft 247kts
13-Sep-20 14:33 48.122534 -123.425245 110 5489ft 247kts
13-Sep-20 14:34 48.107126 -123.325038 111 5486ft 247kts
13-Sep-20 14:35 48.091642 -123.224972 111 5486ft 246kts
13-Sep-20 14:36 48.076130 -123.125331 111 5486ft 246kts
13-Sep-20 14:37 48.060504 -123.025577 111 5486ft 246kts
13-Sep-20 14:38 48.044802 -122.925949 111 5487ft 246kts
13-Sep-20 14:39 48.022839 -122.830684 136 5487ft 230kts
13-Sep-20 14:40 47.981341 -122.757292 138 5486ft 229kts
13-Sep-20 14:41 47.966261 -122.658866 86 5483ft 260kts
13-Sep-20 14:42 47.966975 -122.554774 113 5487ft 245kts
13-Sep-20 14:43 47.946611 -122.458556 116 5487ft 243kts
13-Sep-20 14:44 47.924804 -122.361054 116 4355ft 250kts
13-Sep-20 14:45 47.900319 -122.267131 122 3485ft 241kts
13-Sep-20 14:46 47.871853 -122.182114 126 3481ft 206kts
13-Sep-20 14:47 47.844189 -122.107053 129 2492ft 203kts
13-Sep-20 14:48 47.813598 -122.054677 197 1997ft 127kts
13-Sep-20 14:49 47.786294 -122.065943 198 1989ft 80kts
13-Sep-20 14:50 47.757834 -122.078092 198 1996ft 137kts
13-Sep-20 14:51 47.717531 -122.095571 198 1993ft 159kts
13-Sep-20 14:52 47.673064 -122.114877 198 1533ft 169kts
13-Sep-20 14:53 47.636315 -122.132576 202 1477ft 88kts
13-Sep-20 14:54 47.619456 -122.146653 208 1488ft 61kts
13-Sep-20 14:55 47.598623 -122.165870 208 1491ft 99kts
13-Sep-20 14:56 47.574980 -122.187256 208 1494ft 97kts
13-Sep-20 14:57 47.551425 -122.208602 208 1194ft 97kts
13-Sep-20 14:58 47.527828 -122.220729 185 1031ft 87kts
13-Sep-20 14:59 47.505333 -122.217280 176 304ft 73kts
13-Sep-20 15:00 47.493701 -122.215846 169 34ft 6kts

Navigation Log

Ident Type
Flight plan parsing failed, navigation log unavailable